createdAt,value
2022-10-11T00:02:00.864Z,33.85
2022-10-11T00:04:27.495Z,40.67
2022-10-11T00:06:54.723Z,37.28
2022-10-11T00:09:21.314Z,78.78
2022-10-11T00:11:47.888Z,45.88
2022-10-11T00:14:14.621Z,44.25
2022-10-11T00:16:44.275Z,45.05
2022-10-11T00:19:11.571Z,84.15
2022-10-11T00:21:38.492Z,24.58
2022-10-11T00:24:06.404Z,202.35
2022-10-11T00:26:33.035Z,29.75
2022-10-11T00:28:59.677Z,31.55
2022-10-11T00:31:26.266Z,30.98
2022-10-11T00:33:54.541Z,33.22
2022-10-11T00:36:24.025Z,44.67
2022-10-11T00:38:51.704Z,43.05
2022-10-11T00:41:18.508Z,42.70
2022-10-11T00:43:45.326Z,34.95
2022-10-11T00:46:11.789Z,34.33
2022-10-11T00:48:44.553Z,74.75
2022-10-11T00:51:23.747Z,54.72
2022-10-11T00:53:51.545Z,41.63
2022-10-11T00:56:35.965Z,86.38
2022-10-11T00:59:08.768Z,36.53
2022-10-11T01:01:35.518Z,70.00
2022-10-11T01:04:02.749Z,70.35
2022-10-11T01:06:29.685Z,58.80
2022-10-11T01:08:56.584Z,45.30
2022-10-11T01:11:27.268Z,42.65
2022-10-11T01:14:26.483Z,29.92
2022-10-11T01:17:08.021Z,28.08
2022-10-11T01:20:42.644Z,18.98
2022-10-11T01:23:39.697Z,23.95
2022-10-11T01:26:24.968Z,20.42
2022-10-11T01:29:13.737Z,23.35
2022-10-11T01:31:53.429Z,21.20
2022-10-11T01:34:59.766Z,24.23
2022-10-11T01:37:35.017Z,28.27
2022-10-11T01:40:14.445Z,31.13
2022-10-11T01:42:42.845Z,34.90
2022-10-11T01:45:15.051Z,24.20
2022-10-11T01:47:42.507Z,26.33
2022-10-11T01:50:56.955Z,38.83
2022-10-11T01:53:33.420Z,37.22
2022-10-11T01:56:47.546Z,38.92
2022-10-11T01:59:45.474Z,44.05
2022-10-11T02:02:36.905Z,35.72
2022-10-11T02:05:09.512Z,37.97
2022-10-11T02:07:59.513Z,33.17
2022-10-11T02:10:46.602Z,49.78
2022-10-11T02:13:27.114Z,31.02
2022-10-11T02:15:58.221Z,33.53
2022-10-11T02:18:32.083Z,47.22
2022-10-11T02:21:02.443Z,58.80
2022-10-11T02:23:45.530Z,45.10
2022-10-11T02:26:14.440Z,45.00
2022-10-11T02:28:44.458Z,26.38
2022-10-11T02:31:12.788Z,28.05
2022-10-11T02:33:47.827Z,32.08
2022-10-11T02:36:34.306Z,32.00
2022-10-11T02:39:11.160Z,31.08
2022-10-11T02:41:40.808Z,22.80
2022-10-11T02:44:17.386Z,22.52
2022-10-11T02:46:45.537Z,28.08
2022-10-11T02:49:13.123Z,23.90
2022-10-11T02:51:39.874Z,23.98
2022-10-11T02:54:06.499Z,22.00
2022-10-11T02:56:33.084Z,28.10
2022-10-11T02:58:59.707Z,31.65
2022-10-11T03:01:26.411Z,30.55
2022-10-11T03:03:53.158Z,45.63
2022-10-11T03:06:19.800Z,30.45
2022-10-11T03:08:46.449Z,35.63
2022-10-11T03:11:13.019Z,33.55
2022-10-11T03:13:39.604Z,96.05
2022-10-11T03:16:06.273Z,90.80
2022-10-11T03:18:32.880Z,111.28
2022-10-11T03:20:59.636Z,355.40
2022-10-11T03:23:26.217Z,40.33
2022-10-11T03:25:52.868Z,360.00
2022-10-11T03:28:20.234Z,35.33
2022-10-11T03:30:49.843Z,36.33
2022-10-11T03:33:17.407Z,27.30
2022-10-11T03:35:45.605Z,28.23
2022-10-11T03:38:21.879Z,34.90
2022-10-11T03:40:48.973Z,35.05
2022-10-11T03:43:15.740Z,30.08
2022-10-11T03:45:42.484Z,25.58
2022-10-11T03:48:09.826Z,38.70
2022-10-11T03:50:37.250Z,29.88
2022-10-11T03:53:06.260Z,29.15
2022-10-11T03:55:33.228Z,23.02
2022-10-11T03:57:59.855Z,30.85
2022-10-11T04:00:26.595Z,30.83
2022-10-11T04:02:53.251Z,22.83
2022-10-11T04:05:19.831Z,27.20
2022-10-11T04:07:46.402Z,18.52
2022-10-11T04:10:12.957Z,22.55
2022-10-11T04:12:39.645Z,25.95
2022-10-11T04:15:07.173Z,74.28
2022-10-11T04:17:34.158Z,21.13
2022-10-11T04:20:00.728Z,26.05
2022-10-11T04:22:27.373Z,20.23
2022-10-11T04:24:54.094Z,23.73
2022-10-11T04:27:20.781Z,16.95
2022-10-11T04:29:47.376Z,18.65
2022-10-11T04:32:13.951Z,27.77
2022-10-11T04:34:40.618Z,36.33
2022-10-11T04:37:07.241Z,389.48
2022-10-11T04:39:34.044Z,114.32
2022-10-11T04:42:00.646Z,75.00
2022-10-11T04:44:27.258Z,200.60
2022-10-11T04:46:53.978Z,69.32
2022-10-11T04:49:20.693Z,55.78
2022-10-11T04:51:47.285Z,78.45
2022-10-11T04:54:13.939Z,70.07
2022-10-11T04:56:40.560Z,38.28
2022-10-11T04:59:07.343Z,47.70
2022-10-11T05:01:34.029Z,131.88
2022-10-11T05:04:01.036Z,151.43
2022-10-11T05:06:27.741Z,187.57
2022-10-11T05:08:54.377Z,181.13
2022-10-11T05:11:21.055Z,195.05
2022-10-11T05:13:48.033Z,184.43
2022-10-11T05:16:16.043Z,142.85
2022-10-11T05:18:43.181Z,302.30
2022-10-11T05:21:27.054Z,222.82
2022-10-11T05:23:58.365Z,231.50
2022-10-11T05:26:27.774Z,251.18
2022-10-11T05:28:55.065Z,224.48
2022-10-11T05:31:22.295Z,265.20
2022-10-11T05:33:49.018Z,138.02
2022-10-11T05:36:16.120Z,146.73
2022-10-11T05:38:43.148Z,124.70
2022-10-11T05:41:13.721Z,196.55
2022-10-11T05:43:40.828Z,126.57
2022-10-11T05:46:08.264Z,127.32
2022-10-11T05:48:35.092Z,121.00
2022-10-11T05:51:05.328Z,145.38
2022-10-11T05:53:32.454Z,212.38
2022-10-11T05:55:59.935Z,153.15
2022-10-11T05:58:26.988Z,134.82
2022-10-11T06:00:54.614Z,120.15
2022-10-11T06:03:21.262Z,135.77
2022-10-11T06:05:48.112Z,129.73
2022-10-11T06:08:15.737Z,96.22
2022-10-11T06:10:42.392Z,104.80
2022-10-11T06:13:09.584Z,134.77
2022-10-11T06:15:39.162Z,234.75
2022-10-11T06:18:05.819Z,141.27
2022-10-11T06:20:32.646Z,167.25
2022-10-11T06:22:59.504Z,198.90
2022-10-11T06:25:26.124Z,218.38
2022-10-11T06:27:52.752Z,129.80
2022-10-11T06:30:19.392Z,161.88
2022-10-11T06:32:45.960Z,137.30
2022-10-11T06:35:13.060Z,255.35
2022-10-11T06:37:39.694Z,209.90
2022-10-11T06:40:07.131Z,176.63
2022-10-11T06:42:33.953Z,183.25
2022-10-11T06:45:00.591Z,221.35
2022-10-11T06:47:27.171Z,139.80
2022-10-11T06:49:53.764Z,213.35
2022-10-11T06:52:20.358Z,113.00
2022-10-11T06:54:46.936Z,137.30
2022-10-11T06:57:13.825Z,150.23
2022-10-11T06:59:40.413Z,77.82
2022-10-11T07:02:07.024Z,182.05
2022-10-11T07:04:33.900Z,150.05
2022-10-11T07:07:00.781Z,219.77
2022-10-11T07:09:27.412Z,271.90
2022-10-11T07:11:54.045Z,180.35
2022-10-11T07:14:20.653Z,142.57
2022-10-11T07:16:47.215Z,132.50
2022-10-11T07:19:13.891Z,198.85
2022-10-11T07:21:40.512Z,108.22
2022-10-11T07:24:07.559Z,134.60
2022-10-11T07:26:38.682Z,255.38
2022-10-11T07:29:10.574Z,131.13
2022-10-11T07:31:41.190Z,147.52
2022-10-11T07:34:09.291Z,340.20
2022-10-11T07:36:36.177Z,264.92
2022-10-11T07:39:08.059Z,249.20
2022-10-11T07:41:35.112Z,171.82
2022-10-11T07:44:01.723Z,343.90
2022-10-11T07:46:28.310Z,461.20
2022-10-11T07:48:54.948Z,533.95
2022-10-11T07:51:24.167Z,371.00
2022-10-11T07:53:54.399Z,627.60
2022-10-11T07:56:28.111Z,388.77
2022-10-11T07:59:01.370Z,486.67
2022-10-11T08:01:28.923Z,270.05
2022-10-11T08:03:59.534Z,433.65
2022-10-11T08:06:32.507Z,197.23
2022-10-11T08:09:01.072Z,453.58
2022-10-11T08:11:34.551Z,379.95
2022-10-11T08:14:05.140Z,237.20
2022-10-11T08:16:31.702Z,194.05
2022-10-11T08:18:58.296Z,452.10
2022-10-11T08:21:26.730Z,158.60
2022-10-11T08:23:53.463Z,286.85
2022-10-11T08:26:20.072Z,449.92
2022-10-11T08:28:46.708Z,247.75
2022-10-11T08:31:15.682Z,66.88
2022-10-11T08:33:42.888Z,102.20
2022-10-11T08:36:10.782Z,73.43
2022-10-11T08:38:38.825Z,117.32
2022-10-11T08:41:29.149Z,113.45
2022-10-11T08:44:18.449Z,166.45
2022-10-11T08:46:50.711Z,61.75
2022-10-11T08:49:23.109Z,56.95
2022-10-11T08:52:02.572Z,75.82
2022-10-11T08:54:48.906Z,71.82
2022-10-11T08:59:53.801Z,215.82
2022-10-11T09:03:02.827Z,69.60
2022-10-11T09:05:26.005Z,59.28
2022-10-11T09:08:09.072Z,63.83
2022-10-11T09:10:56.106Z,57.40
2022-10-11T09:14:07.528Z,57.10
2022-10-11T09:17:06.924Z,50.45
2022-10-11T09:19:45.431Z,58.97
2022-10-11T09:22:25.782Z,52.10
2022-10-11T09:25:21.162Z,51.50
2022-10-11T09:28:09.619Z,51.50
2022-10-11T09:30:40.261Z,59.15
2022-10-11T09:33:18.959Z,58.92
2022-10-11T09:35:52.193Z,47.80
2022-10-11T09:38:40.710Z,56.55
2022-10-11T09:41:23.793Z,55.88
2022-10-11T09:43:52.419Z,55.50
2022-10-11T09:46:46.683Z,62.45
2022-10-11T09:49:18.368Z,60.20
2022-10-11T09:51:52.603Z,55.47
2022-10-11T09:54:27.238Z,61.92
2022-10-11T09:56:54.453Z,62.78
2022-10-11T09:59:35.203Z,57.17
2022-10-11T10:02:14.304Z,63.58
2022-10-11T10:05:01.080Z,62.47
2022-10-11T10:07:32.242Z,60.60
2022-10-11T10:09:59.519Z,64.25
2022-10-11T10:12:30.342Z,67.32
2022-10-11T10:15:17.755Z,63.17
2022-10-11T10:17:53.451Z,61.42
2022-10-11T10:22:51.979Z,65.95
2022-10-11T10:25:34.593Z,60.03
2022-10-11T10:28:16.260Z,64.18
2022-10-11T10:30:59.438Z,66.20
2022-10-11T10:33:33.732Z,66.30
2022-10-11T10:36:15.644Z,71.70
2022-10-11T10:39:01.421Z,71.97
2022-10-11T10:41:28.091Z,73.05
2022-10-11T10:43:58.815Z,77.28
2022-10-11T10:46:48.046Z,74.65
2022-10-11T10:52:47.581Z,70.22
2022-10-11T10:58:38.185Z,61.67
2022-10-11T11:01:27.628Z,70.03
2022-10-11T11:04:25.970Z,69.60
2022-10-11T11:06:58.748Z,71.63
2022-10-11T11:09:50.228Z,66.97
2022-10-11T11:13:18.991Z,61.40
2022-10-11T11:16:25.715Z,63.45
2022-10-11T11:19:01.621Z,67.25
2022-10-11T11:21:52.540Z,75.45
2022-10-11T11:24:27.124Z,67.63
2022-10-11T11:27:16.612Z,61.88
2022-10-11T11:30:08.712Z,63.80
2022-10-11T11:32:58.014Z,63.15
2022-10-11T11:35:46.012Z,59.38
2022-10-11T11:38:33.861Z,59.22
2022-10-11T11:41:12.751Z,57.50
2022-10-11T11:43:59.842Z,50.60
2022-10-11T11:46:38.576Z,50.53
2022-10-11T11:49:17.044Z,53.25
2022-10-11T11:51:46.200Z,49.22
2022-10-11T11:54:58.038Z,48.55
2022-10-11T11:58:07.176Z,53.65
2022-10-11T12:01:03.208Z,48.45
2022-10-11T12:03:41.435Z,44.53
2022-10-11T12:06:15.589Z,43.55
2022-10-11T12:08:55.045Z,41.25
2022-10-11T12:11:41.059Z,42.17
2022-10-11T12:14:33.907Z,36.25
2022-10-11T12:17:22.711Z,36.55
2022-10-11T12:20:24.611Z,28.73
2022-10-11T12:23:22.379Z,24.50
2022-10-11T12:26:15.356Z,19.60
2022-10-11T12:28:48.542Z,9.85
2022-10-11T12:31:29.471Z,11.13
2022-10-11T12:34:02.334Z,10.05
2022-10-11T12:36:29.630Z,10.10
2022-10-11T12:39:19.197Z,11.30
2022-10-11T12:41:51.566Z,9.63
2022-10-11T12:44:18.111Z,10.30
2022-10-11T12:46:50.677Z,7.53
2022-10-11T12:49:29.306Z,11.45
2022-10-11T12:52:17.708Z,12.15
2022-10-11T12:55:25.122Z,7.97
2022-10-11T12:58:22.969Z,9.90
2022-10-11T13:00:52.280Z,13.90
2022-10-11T13:03:42.502Z,8.55
2022-10-11T13:06:28.217Z,12.13
2022-10-11T13:09:09.996Z,11.07
2022-10-11T13:11:53.802Z,8.60
2022-10-11T13:14:27.207Z,10.18
2022-10-11T13:17:16.873Z,12.80
2022-10-11T13:19:43.805Z,12.25
2022-10-11T13:22:22.908Z,11.93
2022-10-11T13:24:49.693Z,7.30
2022-10-11T13:27:22.601Z,13.85
2022-10-11T13:29:53.065Z,10.55
2022-10-11T13:32:30.152Z,12.05
2022-10-11T13:35:04.628Z,10.45
2022-10-11T13:37:41.990Z,11.65
2022-10-11T13:40:19.675Z,9.98
2022-10-11T13:42:48.483Z,11.38
2022-10-11T13:45:22.216Z,10.27
2022-10-11T13:47:50.977Z,13.05
2022-10-11T13:50:32.048Z,10.07
2022-10-11T13:53:09.322Z,10.00
2022-10-11T13:55:41.869Z,12.55
2022-10-11T13:58:40.204Z,10.70
2022-10-11T14:01:22.865Z,9.00
2022-10-11T14:03:53.649Z,12.75
2022-10-11T14:06:20.623Z,14.15
2022-10-11T14:08:55.889Z,17.88
2022-10-11T14:11:39.003Z,13.57
2022-10-11T14:14:42.777Z,13.25
2022-10-11T14:17:17.892Z,14.30
2022-10-11T14:22:17.258Z,10.07
2022-10-11T14:24:47.909Z,12.98
2022-10-11T14:27:21.484Z,13.07
2022-10-11T14:30:06.149Z,11.05
2022-10-11T14:32:36.410Z,11.00
2022-10-11T14:35:03.870Z,13.82
2022-10-11T14:37:30.528Z,15.63
2022-10-11T14:39:57.141Z,13.73
2022-10-11T14:42:23.760Z,15.07
2022-10-11T14:44:50.412Z,12.73
2022-10-11T14:47:17.897Z,14.82
2022-10-11T14:49:44.611Z,11.35
2022-10-11T14:52:13.477Z,14.70
2022-10-11T14:54:41.343Z,17.50
2022-10-11T14:57:10.911Z,18.83
2022-10-11T14:59:38.277Z,12.98
2022-10-11T15:02:08.690Z,11.13
2022-10-11T15:04:35.433Z,16.15
2022-10-11T15:07:02.258Z,17.33
2022-10-11T15:09:29.711Z,12.85
2022-10-11T15:11:56.916Z,14.35
2022-10-11T15:14:25.227Z,14.40
2022-10-11T15:16:51.942Z,17.20
2022-10-11T15:19:24.933Z,16.92
2022-10-11T15:21:52.248Z,14.98
2022-10-11T15:24:22.465Z,17.30
2022-10-11T15:26:49.471Z,19.33
2022-10-11T15:29:17.880Z,17.08
2022-10-11T15:31:46.028Z,19.52
2022-10-11T15:34:12.660Z,16.02
2022-10-11T15:36:39.271Z,21.67
2022-10-11T15:39:30.480Z,18.35
2022-10-11T15:41:57.459Z,18.33
2022-10-11T15:44:24.284Z,23.00
2022-10-11T15:46:51.680Z,22.90
2022-10-11T15:49:18.404Z,14.13
2022-10-11T15:51:45.996Z,22.98
2022-10-11T15:54:12.598Z,18.20
2022-10-11T15:56:39.227Z,19.92
2022-10-11T15:59:05.825Z,21.38
2022-10-11T16:01:32.840Z,21.70
2022-10-11T16:03:59.610Z,14.63
2022-10-11T16:06:29.327Z,20.35
2022-10-11T16:08:55.950Z,18.15
2022-10-11T16:11:22.544Z,21.05
2022-10-11T16:13:52.276Z,18.50
2022-10-11T16:16:18.848Z,22.40
2022-10-11T16:18:45.430Z,19.55
2022-10-11T16:21:15.414Z,18.98
2022-10-11T16:23:42.198Z,21.50
2022-10-11T16:26:13.531Z,17.92
2022-10-11T16:28:41.820Z,21.33
2022-10-11T16:31:11.550Z,17.63
2022-10-11T16:33:45.555Z,22.42
2022-10-11T16:36:40.281Z,18.90
2022-10-11T16:39:14.651Z,15.02
2022-10-11T16:41:42.022Z,21.05
2022-10-11T16:44:25.146Z,21.20
2022-10-11T16:46:51.964Z,18.30
2022-10-11T16:49:22.499Z,21.10
2022-10-11T16:51:55.454Z,18.27
2022-10-11T16:54:22.975Z,17.77
2022-10-11T16:56:50.031Z,22.15
2022-10-11T16:59:17.321Z,18.38
2022-10-11T17:01:45.077Z,21.48
2022-10-11T17:04:13.064Z,18.60
2022-10-11T17:06:41.094Z,20.38
2022-10-11T17:09:07.700Z,24.15
2022-10-11T17:11:34.313Z,25.95
2022-10-11T17:14:02.017Z,22.45
2022-10-11T17:16:29.170Z,19.17
2022-10-11T17:18:55.855Z,22.75
2022-10-11T17:21:22.841Z,23.95
2022-10-11T17:23:49.809Z,24.15
2022-10-11T17:26:21.052Z,22.52
2022-10-11T17:28:48.276Z,20.27
2022-10-11T17:31:15.174Z,26.27
2022-10-11T17:33:41.866Z,33.13
2022-10-11T17:36:25.178Z,26.15
2022-10-11T17:38:52.195Z,31.02
2022-10-11T17:41:19.638Z,27.40
2022-10-11T17:43:47.551Z,26.85
2022-10-11T17:46:17.085Z,28.10
2022-10-11T17:48:45.384Z,27.45
2022-10-11T17:51:16.607Z,27.25
2022-10-11T17:53:44.125Z,25.85
2022-10-11T17:56:14.757Z,30.15
2022-10-11T17:58:42.583Z,30.17
2022-10-11T18:01:14.068Z,31.38
2022-10-11T18:03:42.170Z,31.80
2022-10-11T18:06:13.297Z,33.63
2022-10-11T18:08:41.287Z,27.50
2022-10-11T18:11:17.218Z,27.80
2022-10-11T18:16:16.120Z,25.77
2022-10-11T18:18:43.937Z,31.10
2022-10-11T18:21:12.756Z,27.77
2022-10-11T18:23:39.684Z,29.90
2022-10-11T18:26:28.010Z,34.85
2022-10-11T18:28:57.105Z,43.10
2022-10-11T18:31:33.602Z,34.70
2022-10-11T18:34:00.763Z,32.90
2022-10-11T18:36:29.928Z,33.70
2022-10-11T18:39:01.711Z,31.20
2022-10-11T18:41:31.514Z,33.08
2022-10-11T18:44:05.371Z,36.88
2022-10-11T18:46:33.240Z,29.13
2022-10-11T18:49:02.040Z,32.60
2022-10-11T18:51:32.577Z,38.95
2022-10-11T18:54:00.334Z,29.95
2022-10-11T18:56:29.180Z,43.63
2022-10-11T18:58:59.171Z,38.85
2022-10-11T19:01:33.199Z,43.88
2022-10-11T19:04:02.216Z,46.15
2022-10-11T19:06:33.438Z,48.58
2022-10-11T19:09:06.026Z,44.78
2022-10-11T19:11:33.431Z,43.55
2022-10-11T19:14:07.236Z,46.80
2022-10-11T19:16:37.666Z,44.15
2022-10-11T19:19:07.998Z,44.17
2022-10-11T19:21:34.577Z,45.65
2022-10-11T19:24:03.608Z,43.53
2022-10-11T19:26:39.554Z,36.97
2022-10-11T19:31:40.184Z,46.50
2022-10-11T19:34:07.021Z,48.88
2022-10-11T19:36:36.872Z,42.47
2022-10-11T19:39:05.321Z,35.78
2022-10-11T19:41:32.148Z,37.92
2022-10-11T19:43:59.869Z,41.75
2022-10-11T19:46:49.971Z,39.47
2022-10-11T19:49:15.641Z,37.88
2022-10-11T19:51:42.238Z,37.97
2022-10-11T19:54:12.550Z,39.22
2022-10-11T19:56:39.928Z,42.13
2022-10-11T19:59:07.060Z,40.45
2022-10-11T20:01:35.581Z,42.95
2022-10-11T20:04:06.194Z,56.13
2022-10-11T20:06:38.635Z,44.40
2022-10-11T20:09:28.560Z,36.70
2022-10-11T20:11:54.560Z,33.08
2022-10-11T20:14:21.297Z,30.83
2022-10-11T20:16:50.281Z,35.28
2022-10-11T20:19:17.331Z,31.15
2022-10-11T20:21:44.900Z,28.90
2022-10-11T20:24:11.542Z,30.23
2022-10-11T20:26:38.984Z,22.85
2022-10-11T20:29:05.596Z,33.53
2022-10-11T20:31:38.418Z,29.15
2022-10-11T20:34:07.211Z,35.75
2022-10-11T20:36:35.893Z,36.95
2022-10-11T20:39:03.891Z,36.15
2022-10-11T20:41:34.574Z,33.65
2022-10-11T20:44:03.092Z,41.42
2022-10-11T20:46:33.052Z,38.10
2022-10-11T20:49:04.496Z,27.85
2022-10-11T20:51:35.125Z,32.85
2022-10-11T20:54:04.022Z,30.27
2022-10-11T20:56:31.429Z,25.17
2022-10-11T20:58:58.563Z,22.17
2022-10-11T21:01:32.077Z,34.22
2022-10-11T21:04:01.189Z,30.33
2022-10-11T21:06:29.404Z,27.50
2022-10-11T21:08:58.729Z,29.65
2022-10-11T21:11:26.927Z,27.10
2022-10-11T21:13:58.395Z,36.08
2022-10-11T21:16:25.832Z,25.65
2022-10-11T21:18:55.316Z,33.72
2022-10-11T21:21:23.920Z,31.60
2022-10-11T21:23:58.785Z,33.17
2022-10-11T21:26:25.444Z,27.23
2022-10-11T21:28:52.167Z,27.52
2022-10-11T21:31:21.265Z,30.88
2022-10-11T21:33:48.389Z,31.38
2022-10-11T21:36:18.770Z,24.85
2022-10-11T21:38:46.292Z,29.50
2022-10-11T21:41:17.013Z,27.92
2022-10-11T21:43:44.022Z,32.50
2022-10-11T21:46:12.409Z,27.67
2022-10-11T21:48:39.933Z,28.92
2022-10-11T21:51:07.271Z,28.45
2022-10-11T21:53:34.141Z,27.20
2022-10-11T21:56:01.283Z,32.33
2022-10-11T21:58:28.236Z,25.25
2022-10-11T22:00:54.917Z,24.23
2022-10-11T22:03:24.183Z,36.35
2022-10-11T22:05:52.688Z,25.63
2022-10-11T22:08:19.319Z,30.13
2022-10-11T22:10:58.126Z,34.00
2022-10-11T22:13:27.429Z,27.42
2022-10-11T22:15:56.206Z,27.83
2022-10-11T22:18:24.581Z,25.83
2022-10-11T22:20:51.606Z,29.58
2022-10-11T22:23:19.107Z,26.33
2022-10-11T22:25:46.018Z,38.65
2022-10-11T22:28:13.523Z,37.88
2022-10-11T22:30:40.284Z,28.85
2022-10-11T22:33:06.865Z,29.75
2022-10-11T22:35:37.546Z,40.65
2022-10-11T22:38:06.300Z,41.47
2022-10-11T22:40:33.063Z,30.92
2022-10-11T22:42:59.669Z,29.85
2022-10-11T22:45:26.284Z,29.77
2022-10-11T22:47:52.917Z,25.40
2022-10-11T22:50:19.511Z,36.03
2022-10-11T22:52:46.080Z,31.23
2022-10-11T22:55:19.005Z,27.83
2022-10-11T22:57:46.644Z,29.95
2022-10-11T23:00:13.758Z,38.60
2022-10-11T23:02:41.027Z,33.33
2022-10-11T23:05:08.074Z,30.60
2022-10-11T23:07:34.844Z,23.92
2022-10-11T23:10:02.113Z,35.05
2022-10-11T23:12:28.673Z,35.08
2022-10-11T23:14:55.265Z,28.98
2022-10-11T23:17:21.929Z,31.58
2022-10-11T23:19:48.707Z,31.33
2022-10-11T23:22:15.606Z,33.25
2022-10-11T23:24:42.189Z,35.63
2022-10-11T23:27:08.866Z,25.77
2022-10-11T23:29:35.745Z,31.83
2022-10-11T23:32:02.333Z,25.20
2022-10-11T23:34:29.008Z,28.60
2022-10-11T23:36:55.553Z,26.92
2022-10-11T23:39:22.155Z,27.17
2022-10-11T23:41:49.062Z,32.97
2022-10-11T23:44:15.734Z,29.10
2022-10-11T23:46:42.337Z,37.22
2022-10-11T23:49:08.954Z,30.45
2022-10-11T23:51:35.517Z,26.88
2022-10-11T23:54:02.268Z,24.65
2022-10-11T23:56:28.860Z,21.95
2022-10-11T23:58:55.524Z,27.65
